Time;durP1;ratioP1;P1;durP2;ratioP2;P2;SDS_P1;SDS_P2;PMS_P1;PMS_P2;Temp;Humidity;BMP_temperature;BMP_pressure;BME280_temperature;BME280_humidity;BME280_pressure;Samples;Min_cycle;Max_cycle;Signal;HPM_P1;HPM_P2
2022/09/02 00:00:59;;;;;;;7.17;5.62;;;;;;;12.88;65.28;100084.11;1667797;84;21152;-79
2022/09/02 00:03:22;;;;;;;8.30;5.60;;;;;;;12.82;65.24;100083.48;1677000;85;21093;-79
2022/09/02 00:05:49;;;;;;;8.20;5.97;;;;;;;12.77;65.40;100085.86;1652958;86;21050;-80
2022/09/02 00:08:17;;;;;;;10.88;6.35;;;;;;;12.73;65.39;100085.38;1653097;86;21600;-80
2022/09/02 00:10:43;;;;;;;6.37;5.08;;;;;;;12.70;65.52;100085.70;1646015;86;21122;-78
2022/09/02 00:13:13;;;;;;;7.42;5.50;;;;;;;12.65;65.61;100092.08;1652741;86;21545;-78
2022/09/02 00:15:42;;;;;;;8.45;6.10;;;;;;;12.58;65.66;100095.92;1663484;85;21068;-80
2022/09/02 00:18:11;;;;;;;9.30;6.05;;;;;;;12.53;65.72;100093.44;1642655;86;21056;-80
2022/09/02 00:20:39;;;;;;;8.73;6.25;;;;;;;12.50;65.69;100099.95;1654195;86;21103;-79
2022/09/02 00:23:07;;;;;;;8.60;6.05;;;;;;;12.46;65.56;100097.79;1654267;86;21135;-79
2022/09/02 00:25:35;;;;;;;7.17;5.75;;;;;;;12.44;65.52;100100.65;1652155;86;21517;-80
2022/09/02 00:28:02;;;;;;;8.08;6.20;;;;;;;12.43;65.73;100096.31;1655683;86;21006;-78
2022/09/02 00:30:28;;;;;;;8.90;5.95;;;;;;;12.37;65.83;100100.48;1655903;85;21146;-79
2022/09/02 00:32:55;;;;;;;12.78;6.40;;;;;;;12.31;65.88;100105.17;1668033;85;21070;-80
2022/09/02 00:35:22;;;;;;;7.90;5.72;;;;;;;12.29;66.17;100105.84;1667539;85;21146;-78
2022/09/02 00:37:48;;;;;;;8.60;6.30;;;;;;;12.27;66.09;100105.19;1652398;86;21054;-80
2022/09/02 00:40:15;;;;;;;7.12;5.55;;;;;;;12.27;66.10;100106.52;1652376;86;21063;-76
2022/09/02 00:42:41;;;;;;;7.22;5.87;;;;;;;12.26;66.14;100112.01;1663713;85;21535;-79
2022/09/02 00:45:09;;;;;;;6.80;5.78;;;;;;;12.26;66.05;100108.02;1653660;86;21058;-80
2022/09/02 00:47:35;;;;;;;10.32;6.60;;;;;;;12.26;66.06;100107.50;1643770;86;21207;-79
2022/09/02 00:50:06;;;;;;;9.00;6.00;;;;;;;12.24;65.97;100108.17;1667932;85;21032;-79
2022/09/02 00:52:41;;;;;;;8.38;6.20;;;;;;;12.21;66.04;100111.20;1681320;85;21022;-81
2022/09/02 00:55:16;;;;;;;;;;;;;;;12.16;66.06;100113.02;1683024;84;21102;-80
2022/09/02 00:57:55;;;;;;;10.48;6.85;;;;;;;12.13;66.07;100120.52;1667842;85;20449;-80
2022/09/02 01:00:28;;;;;;;10.25;6.55;;;;;;;12.10;66.05;100117.69;1665805;85;21681;-83
2022/09/02 01:02:58;;;;;;;13.60;6.97;;;;;;;12.09;65.97;100121.38;1651660;86;21134;-76
2022/09/02 01:05:28;;;;;;;8.53;7.28;;;;;;;12.07;65.96;100129.18;1667246;85;21065;-76
2022/09/02 01:07:56;;;;;;;10.23;7.72;;;;;;;12.03;65.99;100129.19;1660054;85;21104;-77
2022/09/02 01:10:28;;;;;;;10.82;7.62;;;;;;;11.96;66.00;100127.71;1634954;86;21060;-77
2022/09/02 01:12:59;;;;;;;10.93;7.63;;;;;;;11.93;66.04;100134.18;1653659;86;21553;-80
2022/09/02 01:15:26;;;;;;;10.35;7.78;;;;;;;11.89;66.11;100126.20;1665260;85;21136;-79
2022/09/02 01:17:53;;;;;;;12.23;8.15;;;;;;;11.85;66.25;100128.01;1678231;85;21024;-79
2022/09/02 01:20:23;;;;;;;9.60;7.30;;;;;;;11.84;66.22;100133.84;1671227;85;20992;-79
2022/09/02 01:22:51;;;;;;;11.83;8.73;;;;;;;11.83;66.40;100139.33;1660431;85;21043;-79
2022/09/02 01:25:22;;;;;;;11.15;7.67;;;;;;;11.79;66.45;100138.82;1641594;86;22235;-76
2022/09/02 01:27:49;;;;;;;11.08;8.53;;;;;;;11.76;66.38;100143.98;1648484;86;21178;-78
2022/09/02 01:30:20;;;;;;;12.82;8.18;;;;;;;11.74;66.41;100138.48;1665806;85;21128;-77
2022/09/02 01:32:46;;;;;;;14.55;8.65;;;;;;;11.73;66.33;100142.16;1665968;85;21041;-75
2022/09/02 01:35:14;;;;;;;11.33;8.40;;;;;;;11.71;66.17;100152.14;1674568;85;21062;-78
2022/09/02 01:37:43;;;;;;;13.48;9.03;;;;;;;11.69;66.02;100151.47;1684595;85;21125;-77
2022/09/02 01:40:12;;;;;;;11.85;8.20;;;;;;;11.68;65.99;100151.12;1679170;85;21047;-77
2022/09/02 01:42:39;;;;;;;12.65;7.83;;;;;;;11.67;66.03;100151.63;1673964;85;21575;-78
2022/09/02 01:45:07;;;;;;;10.90;8.03;;;;;;;11.69;65.94;100156.28;1653086;86;21548;-78
2022/09/02 01:47:36;;;;;;;12.13;8.30;;;;;;;11.70;65.93;100155.27;1643778;86;21663;-79
2022/09/02 01:50:05;;;;;;;10.63;7.70;;;;;;;11.71;65.95;100163.60;1668549;85;22001;-76
2022/09/02 01:52:34;;;;;;;12.63;7.53;;;;;;;11.72;65.91;100165.25;1671980;85;21110;-79
2022/09/02 01:55:01;;;;;;;11.05;7.12;;;;;;;11.74;65.84;100160.62;1650719;86;21225;-80
2022/09/02 01:57:30;;;;;;;10.55;7.75;;;;;;;11.78;65.61;100161.10;1646276;86;21038;-77
2022/09/02 01:59:57;;;;;;;11.73;7.75;;;;;;;11.81;65.53;100161.61;1676677;85;21093;-79
2022/09/02 02:02:25;;;;;;;10.90;6.20;;;;;;;11.85;65.34;100167.44;1667242;85;21145;-81
2022/09/02 02:04:52;;;;;;;13.20;6.70;;;;;;;11.87;65.21;100166.77;1664371;85;21027;-79
2022/09/02 02:07:19;;;;;;;10.93;7.42;;;;;;;11.92;65.54;100167.14;1664388;86;21119;-81
2022/09/02 02:09:47;;;;;;;8.58;6.65;;;;;;;11.92;65.67;100172.98;1666104;85;21539;-76
2022/09/02 02:12:15;;;;;;;11.88;7.60;;;;;;;11.90;65.80;100174.47;1677633;85;21099;-77
2022/09/02 02:14:42;;;;;;;12.28;8.75;;;;;;;11.86;66.23;100176.24;1647597;86;21215;-79
2022/09/02 02:17:09;;;;;;;10.70;6.95;;;;;;;11.81;66.18;100177.58;1672924;85;21541;-79
2022/09/02 02:19:35;;;;;;;12.70;7.87;;;;;;;11.78;66.57;100182.39;1652100;86;21764;-78
2022/09/02 02:22:03;;;;;;;11.97;6.65;;;;;;;11.73;66.57;100182.91;1652374;86;21052;-79
2022/09/02 02:24:29;;;;;;;11.10;7.35;;;;;;;11.70;66.49;100183.73;1652473;86;21094;-80
2022/09/02 02:26:58;;;;;;;8.93;6.92;;;;;;;11.66;66.53;100185.87;1652499;86;21153;-81
2022/09/02 02:29:24;;;;;;;10.40;7.17;;;;;;;11.62;66.74;100187.20;1673372;85;21046;-81
2022/09/02 02:31:51;;;;;;;11.03;7.55;;;;;;;11.51;67.08;100174.21;1668096;85;21090;-79
2022/09/02 02:34:17;;;;;;;10.20;6.53;;;;;;;11.48;67.34;100178.55;1669672;85;21030;-79
2022/09/02 02:36:44;;;;;;;9.70;6.65;;;;;;;11.48;67.52;100184.69;1678261;85;21093;-76
2022/09/02 02:39:11;;;;;;;13.53;7.28;;;;;;;11.54;67.62;100186.69;1664845;84;21669;-78
2022/09/02 02:41:39;;;;;;;9.55;7.45;;;;;;;11.46;67.80;100185.36;1654664;85;21095;-76
2022/09/02 02:44:06;;;;;;;11.12;7.20;;;;;;;11.41;67.97;100185.00;1667837;85;21072;-76
2022/09/02 02:46:34;;;;;;;12.23;8.03;;;;;;;11.38;68.03;100185.34;1662056;85;21035;-76
2022/09/02 02:49:02;;;;;;;14.93;8.65;;;;;;;11.41;68.04;100185.00;1663363;84;21123;-77
2022/09/02 02:51:29;;;;;;;14.38;9.68;;;;;;;11.44;67.98;100186.02;1652298;86;21292;-76
2022/09/02 02:53:56;;;;;;;13.58;9.73;;;;;;;11.48;67.98;100184.69;1652050;86;21078;-75
2022/09/02 02:56:23;;;;;;;16.77;11.08;;;;;;;11.51;67.99;100188.38;1671199;85;21535;-75
2022/09/02 02:58:50;;;;;;;15.50;10.28;;;;;;;11.49;67.96;100188.17;1652159;86;21083;-75
2022/09/02 03:01:17;;;;;;;20.32;13.35;;;;;;;11.48;67.89;100188.69;1674146;85;21086;-78
2022/09/02 03:03:44;;;;;;;24.95;16.02;;;;;;;11.46;67.91;100188.02;1647769;87;22272;-77
2022/09/02 03:06:11;;;;;;;26.27;17.73;;;;;;;11.44;67.88;100192.67;1648455;87;21062;-77
2022/09/02 03:08:40;;;;;;;25.27;16.97;;;;;;;11.44;67.86;100195.84;1647949;86;21045;-77
2022/09/02 03:11:07;;;;;;;31.33;21.45;;;;;;;11.43;67.87;100196.31;1647155;87;21539;-76
2022/09/02 03:13:35;;;;;;;32.98;22.25;;;;;;;11.44;67.92;100200.65;1619339;87;21067;-77
2022/09/02 03:16:04;;;;;;;31.90;21.48;;;;;;;11.43;67.82;100205.63;1648490;86;21154;-76
2022/09/02 03:18:33;;;;;;;34.70;21.68;;;;;;;11.38;67.87;100201.30;1647663;87;21119;-78
2022/09/02 03:21:00;;;;;;;32.05;20.30;;;;;;;11.35;68.01;100205.61;1648498;87;21077;-76
2022/09/02 03:23:27;;;;;;;27.42;19.75;;;;;;;11.39;67.93;100204.28;1646418;87;21101;-78
2022/09/02 03:25:53;;;;;;;38.55;22.07;;;;;;;11.53;67.78;100205.48;1647272;87;21091;-76
2022/09/02 03:28:21;;;;;;;34.60;21.90;;;;;;;11.56;67.72;100209.98;1629468;87;21136;-77
2022/09/02 03:30:48;;;;;;;39.88;25.32;;;;;;;11.55;67.72;100210.99;1642157;87;21631;-73
2022/09/02 03:33:15;;;;;;;42.10;27.07;;;;;;;11.56;67.78;100211.31;1646466;87;21073;-76
2022/09/02 03:35:43;;;;;;;42.25;28.52;;;;;;;11.54;67.78;100217.80;1647655;87;21096;-76
2022/09/02 03:38:10;;;;;;;47.70;32.17;;;;;;;11.47;67.73;100218.93;1648628;86;21512;-74
2022/09/02 03:40:37;;;;;;;52.25;37.03;;;;;;;11.40;67.83;100225.41;1648347;87;21239;-74
2022/09/02 03:43:04;;;;;;;54.23;35.03;;;;;;;11.33;67.94;100229.70;1648378;86;21059;-75
2022/09/02 03:45:31;;;;;;;53.87;36.38;;;;;;;11.27;68.14;100237.00;1646399;87;20981;-76
2022/09/02 03:48:00;;;;;;;67.17;39.83;;;;;;;11.19;68.33;100239.63;1664520;86;21033;-74
2022/09/02 03:50:33;;;;;;;71.82;45.40;;;;;;;11.13;68.53;100242.94;1663430;86;21103;-76
2022/09/02 03:52:59;;;;;;;71.70;47.60;;;;;;;11.08;68.70;100240.73;1648280;87;21166;-74
2022/09/02 03:55:26;;;;;;;71.42;44.33;;;;;;;11.07;68.88;100251.52;1660823;86;21043;-76
2022/09/02 03:57:53;;;;;;;70.75;46.92;;;;;;;11.12;68.90;100253.22;1616802;88;21132;-73
2022/09/02 04:00:23;;;;;;;77.45;50.55;;;;;;;11.29;68.70;100258.95;1661336;85;21092;-74
2022/09/02 04:02:53;;;;;;;79.77;53.02;;;;;;;11.32;68.71;100260.44;1651422;85;21067;-75
2022/09/02 04:05:21;;;;;;;98.70;58.58;;;;;;;11.31;68.78;100257.46;1666281;86;21845;-76
2022/09/02 04:07:50;;;;;;;93.90;58.10;;;;;;;11.34;68.67;100263.80;1609491;89;21070;-76
2022/09/02 04:10:19;;;;;;;96.30;60.83;;;;;;;11.40;68.67;100260.50;1667816;86;21078;-75
2022/09/02 04:12:50;;;;;;;106.17;65.47;;;;;;;11.45;68.47;100263.48;1657352;86;21085;-77
2022/09/02 04:15:18;;;;;;;107.55;68.07;;;;;;;11.47;68.44;100262.83;1668910;86;21590;-78
2022/09/02 04:17:45;;;;;;;112.72;75.00;;;;;;;11.50;68.42;100265.18;1669666;86;21361;-77
2022/09/02 04:20:12;;;;;;;120.15;76.55;;;;;;;11.67;68.25;100269.23;1669965;85;21055;-77
2022/09/02 04:22:40;;;;;;;120.42;77.55;;;;;;;11.77;67.92;100264.09;1669622;86;21550;-77
2022/09/02 04:25:07;;;;;;;119.82;74.80;;;;;;;11.88;67.74;100268.75;1669888;85;21132;-75
2022/09/02 04:27:34;;;;;;;111.42;70.97;;;;;;;11.94;67.49;100269.48;1669968;86;21002;-76
2022/09/02 04:30:01;;;;;;;104.35;67.72;;;;;;;12.00;67.44;100274.16;1667187;85;21311;-76
2022/09/02 04:32:30;;;;;;;101.30;65.62;;;;;;;12.07;67.33;100272.50;1665846;86;21089;-74
2022/09/02 04:34:57;;;;;;;92.42;61.35;;;;;;;12.09;67.36;100279.83;1669978;86;21057;-75
2022/09/02 04:37:24;;;;;;;85.57;58.08;;;;;;;12.11;67.32;100272.98;1668738;85;21487;-76
2022/09/02 04:39:52;;;;;;;95.92;60.75;;;;;;;12.15;67.26;100275.67;1669488;86;21146;-76
2022/09/02 04:42:19;;;;;;;89.62;57.78;;;;;;;12.22;67.32;100278.50;1666592;86;21140;-77
2022/09/02 04:44:46;;;;;;;79.35;52.80;;;;;;;12.26;67.25;100278.50;1668799;85;21111;-78
2022/09/02 04:47:13;;;;;;;79.58;53.48;;;;;;;12.36;67.15;100277.34;1662489;85;21062;-78
2022/09/02 04:49:41;;;;;;;78.60;51.25;;;;;;;12.48;66.99;100285.83;1637392;86;21066;-76
2022/09/02 04:52:09;;;;;;;79.00;51.18;;;;;;;12.63;66.75;100281.14;1671876;85;21066;-80
2022/09/02 04:54:38;;;;;;;73.33;48.73;;;;;;;12.77;66.50;100287.14;1671372;85;21107;-76
2022/09/02 04:57:05;;;;;;;69.12;46.88;;;;;;;12.92;66.21;100286.78;1656668;86;21537;-75
2022/09/02 04:59:35;;;;;;;69.97;44.63;;;;;;;13.07;65.96;100295.41;1652967;86;21496;-76
2022/09/02 05:02:04;;;;;;;73.97;44.73;;;;;;;13.22;65.57;100293.69;1665452;85;21175;-74
2022/09/02 05:04:32;;;;;;;68.37;42.23;;;;;;;13.35;65.30;100294.52;1661596;85;21499;-75
2022/09/02 05:07:02;;;;;;;67.05;42.95;;;;;;;13.46;64.99;100286.62;1651962;85;21667;-76
2022/09/02 05:09:31;;;;;;;73.20;44.88;;;;;;;13.55;64.82;100292.26;1661279;85;21324;-74
2022/09/02 05:12:03;;;;;;;61.35;42.08;;;;;;;13.66;64.75;100294.55;1658715;85;21103;-74
2022/09/02 05:14:30;;;;;;;62.67;43.33;;;;;;;13.77;64.63;100287.97;1644347;86;21075;-76
2022/09/02 05:16:59;;;;;;;69.62;43.52;;;;;;;13.89;64.15;100293.25;1665665;85;21122;-74
2022/09/02 05:19:26;;;;;;;60.63;41.53;;;;;;;13.97;64.00;100291.03;1667799;85;21183;-73
2022/09/02 05:21:55;;;;;;;61.13;41.70;;;;;;;14.00;63.78;100287.99;1659582;85;21118;-73
2022/09/02 05:24:23;;;;;;;62.48;42.35;;;;;;;14.09;63.61;100293.61;1668778;85;21609;-73
2022/09/02 05:26:51;;;;;;;61.45;42.35;;;;;;;14.18;63.41;100293.55;1670411;85;21134;-76
2022/09/02 05:29:19;;;;;;;61.48;41.63;;;;;;;14.24;63.48;100291.02;1661358;85;21071;-74
2022/09/02 05:31:47;;;;;;;61.53;42.65;;;;;;;14.32;63.27;100295.47;1647543;86;21176;-72
2022/09/02 05:34:14;;;;;;;70.28;47.27;;;;;;;14.36;63.08;100298.92;1650239;86;21040;-73
2022/09/02 05:36:43;;;;;;;63.92;44.30;;;;;;;14.42;63.04;100299.23;1651895;86;21103;-72
2022/09/02 05:39:10;;;;;;;64.80;44.93;;;;;;;14.49;63.49;100306.34;1663155;84;21160;-74
2022/09/02 05:41:37;;;;;;;72.27;46.85;;;;;;;14.61;63.27;100300.61;1632265;87;21112;-75
2022/09/02 05:44:41;;;;;;;;;;;;;;;;;;;;;
2022/09/02 05:46:58;;;;;;;83.85;52.88;;;;;;;14.81;63.18;100300.91;1608855;87;21349;-76
2022/09/02 05:49:25;;;;;;;81.30;55.30;;;;;;;14.91;62.59;100305.48;1622310;87;21206;-76
2022/09/02 05:51:57;;;;;;;73.05;52.70;;;;;;;14.98;62.58;100307.77;1627959;87;21591;-77
2022/09/02 05:54:28;;;;;;;74.30;52.65;;;;;;;15.09;62.50;100310.51;1625451;87;21041;-74
2022/09/02 05:57:00;;;;;;;71.45;50.50;;;;;;;15.21;62.09;100309.54;1659328;85;21735;-75
2022/09/02 05:59:28;;;;;;;69.27;44.98;;;;;;;15.32;62.00;100311.24;1649894;86;21142;-74
2022/09/02 06:01:58;;;;;;;48.92;33.83;;;;;;;15.43;61.62;100308.62;1606767;88;21236;-83
2022/09/02 06:04:25;;;;;;;44.00;29.37;;;;;;;15.52;61.35;100310.16;1641323;87;21072;-84
2022/09/02 06:06:53;;;;;;;47.05;33.18;;;;;;;15.62;60.79;100317.08;1667109;86;21659;-84
2022/09/02 06:09:21;;;;;;;38.13;25.62;;;;;;;15.70;60.55;100311.12;1623080;87;21217;-85
2022/09/02 06:11:50;;;;;;;39.95;22.58;;;;;;;15.79;60.50;100311.86;1643918;86;21016;-85
2022/09/02 06:14:21;;;;;;;41.20;26.25;;;;;;;15.86;59.90;100307.41;1670016;85;21094;-85
2022/09/02 06:16:50;;;;;;;36.63;24.72;;;;;;;15.90;59.77;100308.69;1646397;86;21168;-85
2022/09/02 06:19:18;;;;;;;27.10;18.85;;;;;;;15.95;59.82;100321.51;1673485;86;21541;-85
2022/09/02 06:21:47;;;;;;;27.17;18.05;;;;;;;16.02;59.50;100325.09;1672371;85;21557;-83
2022/09/02 06:24:15;;;;;;;25.43;16.52;;;;;;;16.08;59.31;100323.52;1671332;86;21467;-84
2022/09/02 06:26:42;;;;;;;21.48;16.45;;;;;;;16.19;59.01;100332.92;1668286;85;21063;-82
2022/09/02 06:29:11;;;;;;;24.92;17.55;;;;;;;16.27;58.46;100329.59;1668403;86;21019;-84
2022/09/02 06:31:41;;;;;;;20.27;16.10;;;;;;;16.37;58.19;100330.61;1669983;85;21118;-78
2022/09/02 06:34:13;;;;;;;26.02;17.20;;;;;;;16.45;57.57;100326.45;1652339;86;21257;-83
2022/09/02 06:36:41;;;;;;;28.95;18.77;;;;;;;16.47;57.36;100331.63;1662884;85;21582;-83
2022/09/02 06:39:11;;;;;;;24.37;19.00;;;;;;;16.51;57.59;100326.20;1638764;87;21077;-81
2022/09/02 06:41:41;;;;;;;23.27;15.60;;;;;;;16.58;57.31;100332.45;1670772;86;21109;-82
2022/09/02 06:44:10;;;;;;;21.05;14.70;;;;;;;16.66;57.29;100329.63;1670683;86;21246;-83
2022/09/02 06:46:42;;;;;;;18.02;13.45;;;;;;;16.76;56.79;100330.63;1670912;85;21462;-84
2022/09/02 06:49:10;;;;;;;19.80;14.55;;;;;;;16.83;55.73;100330.73;1651520;86;21585;-85
2022/09/02 06:51:41;;;;;;;18.30;13.75;;;;;;;16.87;55.34;100331.48;1669975;86;20986;-82
2022/09/02 06:54:13;;;;;;;17.67;12.07;;;;;;;16.89;54.67;100334.80;1638160;86;21620;-84
2022/09/02 06:56:41;;;;;;;18.50;12.20;;;;;;;16.84;54.09;100331.89;1611563;88;21122;-85
2022/09/02 06:59:09;;;;;;;14.85;11.95;;;;;;;16.81;54.18;100339.47;1668664;86;21106;-83
2022/09/02 07:01:39;;;;;;;16.05;11.25;;;;;;;16.85;54.10;100335.39;1668547;86;21091;-83
2022/09/02 07:07:00;;;;;;;17.20;10.90;;;;;;;17.05;54.00;100336.35;1668320;83;20976;-83
2022/09/02 07:12:14;;;;;;;11.10;7.55;;;;;;;17.31;52.70;100346.97;1816173;79;28332;-84
2022/09/02 07:14:43;;;;;;;11.53;8.03;;;;;;;17.38;52.10;100345.65;1763894;80;21026;-83
2022/09/02 07:17:16;;;;;;;10.70;8.18;;;;;;;17.47;51.77;100350.66;1788044;80;21317;-83
2022/09/02 07:19:45;;;;;;;10.53;6.90;;;;;;;17.55;51.35;100356.38;1782831;80;21585;-81
2022/09/02 07:22:15;;;;;;;10.63;7.17;;;;;;;17.64;50.88;100357.88;1768093;80;21005;-81
2022/09/02 07:24:44;;;;;;;10.78;6.92;;;;;;;17.74;50.12;100354.83;1749873;80;21118;-81
2022/09/02 07:27:13;;;;;;;8.85;6.67;;;;;;;17.85;49.81;100359.66;1779146;80;21603;-83
2022/09/02 07:29:43;;;;;;;7.47;6.05;;;;;;;17.94;49.55;100356.80;1775470;80;21830;-85
2022/09/02 07:32:11;;;;;;;9.78;6.33;;;;;;;18.03;48.55;100350.21;1776960;80;21153;-84
2022/09/02 07:34:39;;;;;;;8.15;6.00;;;;;;;18.08;48.69;100353.13;1758790;80;21013;-85
2022/09/02 07:37:07;;;;;;;7.47;5.30;;;;;;;18.12;48.12;100358.41;1744462;80;21089;-84
2022/09/02 07:39:35;;;;;;;9.45;5.30;;;;;;;18.16;47.63;100356.97;1772087;80;21042;-85
2022/09/02 07:42:06;;;;;;;6.47;5.50;;;;;;;18.24;47.43;100357.30;1765002;80;21123;-84
2022/09/02 07:44:38;;;;;;;6.33;4.90;;;;;;;18.36;46.71;100352.97;1765920;80;21621;-86
2022/09/02 07:47:05;;;;;;;6.80;5.33;;;;;;;18.51;46.24;100357.36;1764968;80;20994;-82
2022/09/02 07:49:33;;;;;;;6.30;5.47;;;;;;;18.66;45.33;100353.95;1778601;79;21026;-83
2022/09/02 07:52:03;;;;;;;6.90;5.53;;;;;;;18.86;45.04;100352.63;1764943;80;21050;-82
2022/09/02 07:54:32;;;;;;;11.75;6.12;;;;;;;19.05;44.78;100344.23;1732473;82;21249;-84
2022/09/02 07:56:59;;;;;;;8.45;5.53;;;;;;;19.27;44.27;100352.07;1734412;81;21066;-83
2022/09/02 07:59:26;;;;;;;9.43;6.03;;;;;;;19.40;44.02;100344.78;1752198;80;21540;-84
2022/09/02 08:01:54;;;;;;;10.72;5.83;;;;;;;19.57;43.65;100345.68;1763443;80;21120;-84
2022/09/02 08:04:25;;;;;;;8.53;6.08;;;;;;;19.70;43.17;100348.83;1777611;80;21044;-84
2022/09/02 08:06:53;;;;;;;8.10;5.17;;;;;;;19.77;42.64;100349.14;1767390;80;21365;-83
2022/09/02 08:09:20;;;;;;;9.53;5.67;;;;;;;19.79;42.54;100348.93;1759675;80;20991;-82
2022/09/02 08:11:49;;;;;;;6.58;5.05;;;;;;;19.81;42.33;100345.50;1725067;82;20978;-84
2022/09/02 08:14:20;;;;;;;6.42;4.50;;;;;;;19.85;42.20;100344.02;1744966;81;20943;-84
2022/09/02 08:16:47;;;;;;;10.18;5.70;;;;;;;19.90;41.93;100342.05;1732202;81;21035;-84
2022/09/02 08:19:15;;;;;;;8.05;5.53;;;;;;;19.89;41.63;100334.99;1723576;83;21079;-84
2022/09/02 08:21:43;;;;;;;9.10;5.78;;;;;;;19.90;41.67;100332.09;1743983;81;21069;-84
2022/09/02 08:24:09;;;;;;;7.90;6.03;;;;;;;19.99;42.08;100331.30;1722522;82;21690;-83
2022/09/02 08:26:37;;;;;;;8.55;5.35;;;;;;;20.14;42.84;100329.67;1705079;82;21015;-85
2022/09/02 08:29:07;;;;;;;6.50;4.85;;;;;;;20.37;42.92;100332.63;1728167;82;20994;-79
2022/09/02 08:31:36;;;;;;;8.38;5.40;;;;;;;20.56;42.01;100332.19;1742249;81;21320;-82
2022/09/02 08:34:03;;;;;;;5.45;4.50;;;;;;;20.62;40.89;100334.03;1734010;81;21026;-80
2022/09/02 08:36:31;;;;;;;5.95;4.62;;;;;;;20.64;40.91;100331.64;1726689;81;21033;-82
2022/09/02 08:38:59;;;;;;;7.25;4.45;;;;;;;20.60;41.45;100331.25;1737512;82;21018;-82
2022/09/02 08:41:55;;;;;;;7.08;3.90;;;;;;;20.54;41.24;100334.27;1677175;83;21105;-81
2022/09/02 08:44:23;;;;;;;5.67;3.85;;;;;;;20.49;41.28;100336.80;1748657;82;21561;-80
2022/09/02 08:46:52;;;;;;;7.87;3.50;;;;;;;20.48;41.34;100332.45;1735480;80;21077;-80
2022/09/02 08:49:33;;;;;;;6.72;4.65;;;;;;;20.51;40.81;100336.05;1740271;82;21104;-80
2022/09/02 08:52:02;;;;;;;5.28;3.33;;;;;;;20.51;41.11;100333.35;1743177;82;21168;-80
2022/09/02 08:54:50;;;;;;;6.33;3.83;;;;;;;20.60;40.74;100328.02;1734747;80;21061;-81
2022/09/02 08:57:16;;;;;;;5.50;3.45;;;;;;;20.69;40.78;100327.24;1736424;80;21119;-81
2022/09/02 08:59:44;;;;;;;6.20;3.40;;;;;;;20.74;40.26;100326.03;1736333;81;21042;-79
2022/09/02 09:02:48;;;;;;;5.62;3.33;;;;;;;20.76;40.26;100329.34;1743096;80;21526;-77
2022/09/02 09:05:32;;;;;;;6.97;2.72;;;;;;;20.80;40.33;100322.98;1686208;84;21095;-79
2022/09/02 09:08:32;;;;;;;4.95;2.90;;;;;;;20.89;39.79;100331.11;1726387;81;21085;-79
2022/09/02 09:11:13;;;;;;;3.90;3.02;;;;;;;20.99;39.69;100326.55;1745144;80;21251;-86
2022/09/02 09:14:19;;;;;;;3.83;2.77;;;;;;;21.44;39.11;100330.39;1729436;81;21039;-84
2022/09/02 09:16:52;;;;;;;3.98;2.85;;;;;;;22.12;37.80;100328.48;1755252;80;21011;-84
2022/09/02 09:19:47;;;;;;;4.45;2.92;;;;;;;22.86;36.60;100311.94;1756097;80;20982;-85
2022/09/02 09:22:17;;;;;;;5.95;3.62;;;;;;;23.59;35.78;100317.34;1753040;80;20991;-85
2022/09/02 09:24:49;;;;;;;5.03;3.20;;;;;;;24.43;34.63;100315.39;1754746;80;21501;-79
2022/09/02 09:27:21;;;;;;;5.60;3.92;;;;;;;24.82;34.42;100310.59;1755540;80;27030;-77
2022/09/02 09:29:50;;;;;;;5.10;3.62;;;;;;;25.26;34.31;100306.09;1754560;79;21030;-79
2022/09/02 09:32:32;;;;;;;4.08;3.67;;;;;;;25.97;33.68;100316.22;1750383;79;21090;-79
2022/09/02 09:35:08;;;;;;;3.70;3.33;;;;;;;26.74;32.87;100305.21;1753096;79;21074;-79
2022/09/02 09:37:46;;;;;;;4.65;3.92;;;;;;;27.54;32.05;100303.75;1757413;80;21161;-77
2022/09/02 09:40:27;;;;;;;4.53;3.55;;;;;;;28.17;30.91;100305.84;1751472;80;20995;-76
2022/09/02 09:43:05;;;;;;;4.35;3.95;;;;;;;28.70;30.09;100304.22;1751949;79;21077;-79
2022/09/02 09:45:47;;;;;;;4.30;3.90;;;;;;;29.12;29.66;100298.97;1756213;79;21111;-79
2022/09/02 09:48:22;;;;;;;6.22;4.55;;;;;;;29.47;29.30;100299.94;1759022;80;21092;-78
2022/09/02 09:51:00;;;;;;;4.45;3.83;;;;;;;29.90;29.27;100304.41;1758827;79;21136;-76
2022/09/02 09:53:31;;;;;;;4.10;3.70;;;;;;;30.36;28.47;100308.20;1748857;80;21081;-77
2022/09/02 09:56:04;;;;;;;4.30;3.90;;;;;;;30.34;27.87;100302.19;1756708;80;21089;-77
2022/09/02 09:58:45;;;;;;;5.03;4.00;;;;;;;30.24;28.01;100302.24;1766221;80;21101;-76
2022/09/02 10:01:23;;;;;;;4.67;4.17;;;;;;;30.50;27.82;100297.94;1740454;80;21024;-81
2022/09/02 10:03:54;;;;;;;4.70;4.22;;;;;;;30.88;27.68;100302.25;1762408;80;21128;-82
2022/09/02 10:06:33;;;;;;;5.12;4.15;;;;;;;31.07;27.03;100300.98;1745374;80;21057;-75
2022/09/02 10:09:03;;;;;;;4.95;4.33;;;;;;;30.85;26.79;100298.70;1759573;79;21059;-74
2022/09/02 10:11:36;;;;;;;6.40;4.90;;;;;;;30.64;26.79;100302.23;1757550;80;21042;-76
2022/09/02 10:14:08;;;;;;;5.87;4.53;;;;;;;30.70;27.61;100296.39;1777350;79;21382;-75
2022/09/02 10:16:47;;;;;;;;;;;;;;;31.07;27.67;100300.98;1766312;80;21098;-76
2022/09/02 10:19:29;;;;;;;5.80;5.30;;;;;;;31.46;26.78;100287.08;1768495;79;20171;-76
2022/09/02 10:22:34;;;;;;;5.47;4.83;;;;;;;31.54;26.27;100289.19;1769588;79;21138;-76
2022/09/02 10:25:12;;;;;;;5.50;4.65;;;;;;;31.67;26.47;100281.32;1756254;80;21073;-76
2022/09/02 10:27:59;;;;;;;6.55;5.90;;;;;;;32.22;25.33;100300.02;1746014;80;21100;-76
2022/09/02 10:30:27;;;;;;;7.72;5.42;;;;;;;31.71;25.59;100285.10;1772891;79;21292;-76
2022/09/02 10:33:19;;;;;;;6.92;5.90;;;;;;;31.38;26.57;100280.04;1747583;80;21093;-77
2022/09/02 10:36:06;;;;;;;7.10;5.60;;;;;;;31.68;26.02;100276.07;1752648;80;21139;-77
2022/09/02 10:38:38;;;;;;;7.85;6.08;;;;;;;31.41;26.11;100278.90;1765384;80;21032;-76
2022/09/02 10:41:30;;;;;;;;;;;;;;;31.14;26.76;100278.14;1760273;80;21034;-77
2022/09/02 10:44:13;;;;;;;8.05;6.22;;;;;;;31.57;26.56;100278.72;1766322;79;22854;-76
2022/09/02 10:47:00;;;;;;;8.95;6.75;;;;;;;32.28;26.03;100279.04;1770582;79;21085;-78
2022/09/02 10:49:33;;;;;;;8.33;7.30;;;;;;;32.85;25.47;100273.36;1769669;80;21061;-78
2022/09/02 10:52:15;;;;;;;;;;;;;;;33.15;25.07;100275.84;1775158;80;21054;-77
2022/09/02 10:55:01;;;;;;;11.63;7.83;;;;;;;33.38;24.81;100276.20;1766690;80;20288;-79
2022/09/02 10:57:32;;;;;;;7.87;6.72;;;;;;;33.55;24.71;100290.69;1760644;80;21208;-81
2022/09/02 11:00:07;;;;;;;11.85;7.97;;;;;;;33.08;24.44;100284.48;1777455;80;21025;-82
2022/09/02 11:02:41;;;;;;;8.73;7.83;;;;;;;32.42;25.02;100281.02;1768446;80;21077;-80
2022/09/02 11:05:19;;;;;;;9.40;8.50;;;;;;;32.09;25.18;100282.38;1748797;80;21010;-79
2022/09/02 11:08:08;;;;;;;10.13;9.03;;;;;;;31.81;25.33;100280.83;1769511;79;21053;-77
2022/09/02 11:10:39;;;;;;;10.48;9.43;;;;;;;31.64;25.73;100286.02;1708438;82;21120;-81
2022/09/02 11:13:18;;;;;;;11.38;8.33;;;;;;;32.09;25.71;100287.87;1718652;80;21105;-81
2022/09/02 11:16:13;;;;;;;9.63;8.63;;;;;;;32.75;25.74;100279.64;1756295;80;21022;-80
2022/09/02 11:19:11;;;;;;;10.13;8.15;;;;;;;33.30;25.58;100282.41;1731594;82;21010;-78
2022/09/02 11:22:08;;;;;;;10.98;9.18;;;;;;;33.89;24.91;100281.15;1756921;79;21058;-79
2022/09/02 11:24:59;;;;;;;11.03;9.00;;;;;;;34.23;24.31;100283.93;1762569;80;22083;-77
2022/09/02 11:27:56;;;;;;;9.25;8.23;;;;;;;33.93;24.46;100274.45;1758860;80;21041;-80
2022/09/02 11:30:41;;;;;;;8.63;7.72;;;;;;;33.92;24.83;100273.64;1676105;80;21030;-81
2022/09/02 11:33:25;;;;;;;8.45;7.65;;;;;;;34.32;24.79;100278.48;1756878;80;21101;-78
2022/09/02 11:35:53;;;;;;;9.73;8.20;;;;;;;34.69;24.64;100280.59;1751730;79;21093;-79
2022/09/02 11:38:53;;;;;;;10.30;7.83;;;;;;;35.14;24.51;100280.45;1760675;79;21169;-79
2022/09/02 11:41:52;;;;;;;9.08;8.08;;;;;;;35.51;24.10;100276.91;1752149;80;21892;-79
2022/09/02 11:44:45;;;;;;;10.05;8.70;;;;;;;35.88;23.91;100276.87;1753532;80;21129;-80